sensor_id;sensor_type;location;lat;lon;timestamp;pressure;altitude;pressure_sealevel;temperature;humidity
56689;BME280;42565;53.342;-1.534;2022-08-01T00:01:31;99335.63;;;19.64;39.30
56689;BME280;42565;53.342;-1.534;2022-08-01T00:03:58;99334.65;;;19.91;39.19
56689;BME280;42565;53.342;-1.534;2022-08-01T00:06:26;99339.66;;;19.73;39.32
56689;BME280;42565;53.342;-1.534;2022-08-01T00:08:53;99342.45;;;19.50;39.92
56689;BME280;42565;53.342;-1.534;2022-08-01T00:11:21;99337.16;;;19.75;38.94
56689;BME280;42565;53.342;-1.534;2022-08-01T00:13:48;99336.87;;;19.85;38.47
56689;BME280;42565;53.342;-1.534;2022-08-01T00:16:16;99346.35;;;19.55;39.45
56689;BME280;42565;53.342;-1.534;2022-08-01T00:18:43;99346.08;;;19.73;39.81
56689;BME280;42565;53.342;-1.534;2022-08-01T00:21:10;99340.42;;;19.82;39.42
56689;BME280;42565;53.342;-1.534;2022-08-01T00:23:37;99338.24;;;19.84;39.11
56689;BME280;42565;53.342;-1.534;2022-08-01T00:26:03;99339.73;;;19.73;39.11
56689;BME280;42565;53.342;-1.534;2022-08-01T00:28:30;99342.90;;;20.25;38.93
56689;BME280;42565;53.342;-1.534;2022-08-01T00:30:58;99347.00;;;19.90;39.47
56689;BME280;42565;53.342;-1.534;2022-08-01T00:33:24;99341.07;;;19.17;39.89
56689;BME280;42565;53.342;-1.534;2022-08-01T00:35:51;99339.94;;;19.21;39.81
56689;BME280;42565;53.342;-1.534;2022-08-01T00:38:18;99339.50;;;19.38;39.79
56689;BME280;42565;53.342;-1.534;2022-08-01T00:40:44;99340.24;;;19.20;40.26
56689;BME280;42565;53.342;-1.534;2022-08-01T00:43:11;99344.06;;;19.46;40.07
56689;BME280;42565;53.342;-1.534;2022-08-01T00:45:38;99344.40;;;19.39;40.12
56689;BME280;42565;53.342;-1.534;2022-08-01T00:48:05;99346.87;;;19.51;39.88
56689;BME280;42565;53.342;-1.534;2022-08-01T00:50:33;99345.44;;;19.48;39.85
56689;BME280;42565;53.342;-1.534;2022-08-01T00:53:03;99341.90;;;19.48;39.87
56689;BME280;42565;53.342;-1.534;2022-08-01T00:55:31;99337.80;;;19.61;39.89
56689;BME280;42565;53.342;-1.534;2022-08-01T00:57:59;99337.31;;;19.69;39.88
56689;BME280;42565;53.342;-1.534;2022-08-01T01:00:26;99341.21;;;19.04;41.02
56689;BME280;42565;53.342;-1.534;2022-08-01T01:02:54;99341.08;;;19.07;40.10
56689;BME280;42565;53.342;-1.534;2022-08-01T01:05:21;99336.43;;;19.66;39.77
56689;BME280;42565;53.342;-1.534;2022-08-01T01:07:54;99338.60;;;19.53;40.40
56689;BME280;42565;53.342;-1.534;2022-08-01T01:10:39;99342.74;;;19.57;39.92
56689;BME280;42565;53.342;-1.534;2022-08-01T01:13:12;99340.80;;;19.63;39.91
56689;BME280;42565;53.342;-1.534;2022-08-01T01:15:43;99341.16;;;19.45;39.69
56689;BME280;42565;53.342;-1.534;2022-08-01T01:18:16;99340.01;;;18.93;40.12
56689;BME280;42565;53.342;-1.534;2022-08-01T01:20:48;99340.43;;;19.67;39.73
56689;BME280;42565;53.342;-1.534;2022-08-01T01:23:29;99340.82;;;19.33;40.65
56689;BME280;42565;53.342;-1.534;2022-08-01T01:26:17;99337.67;;;19.26;40.82
56689;BME280;42565;53.342;-1.534;2022-08-01T01:29:00;99340.12;;;19.52;40.59
56689;BME280;42565;53.342;-1.534;2022-08-01T01:31:30;99341.72;;;19.48;40.48
56689;BME280;42565;53.342;-1.534;2022-08-01T01:33:58;99341.19;;;19.38;40.47
56689;BME280;42565;53.342;-1.534;2022-08-01T01:36:26;99343.68;;;19.53;40.97
56689;BME280;42565;53.342;-1.534;2022-08-01T01:38:56;99343.61;;;18.99;40.63
56689;BME280;42565;53.342;-1.534;2022-08-01T01:41:24;99342.35;;;19.15;41.33
56689;BME280;42565;53.342;-1.534;2022-08-01T01:43:53;99337.07;;;18.98;41.42
56689;BME280;42565;53.342;-1.534;2022-08-01T01:46:24;99336.35;;;19.05;41.81
56689;BME280;42565;53.342;-1.534;2022-08-01T01:48:54;99341.83;;;19.49;41.05
56689;BME280;42565;53.342;-1.534;2022-08-01T01:51:22;99340.99;;;19.21;40.94
56689;BME280;42565;53.342;-1.534;2022-08-01T01:53:53;99339.87;;;19.17;41.20
56689;BME280;42565;53.342;-1.534;2022-08-01T01:56:21;99337.42;;;18.90;40.97
56689;BME280;42565;53.342;-1.534;2022-08-01T01:58:51;99333.84;;;18.84;40.84
56689;BME280;42565;53.342;-1.534;2022-08-01T02:01:21;99330.47;;;18.62;41.20
56689;BME280;42565;53.342;-1.534;2022-08-01T02:03:51;99324.22;;;18.72;41.63
56689;BME280;42565;53.342;-1.534;2022-08-01T02:06:19;99323.41;;;18.29;42.77
56689;BME280;42565;53.342;-1.534;2022-08-01T02:08:47;99324.16;;;18.62;42.10
56689;BME280;42565;53.342;-1.534;2022-08-01T02:11:15;99324.69;;;18.30;42.23
56689;BME280;42565;53.342;-1.534;2022-08-01T02:13:42;99326.23;;;18.73;42.35
56689;BME280;42565;53.342;-1.534;2022-08-01T02:16:10;99322.36;;;17.93;42.42
56689;BME280;42565;53.342;-1.534;2022-08-01T02:18:38;99321.70;;;18.05;42.87
56689;BME280;42565;53.342;-1.534;2022-08-01T02:21:09;99323.66;;;18.18;42.98
56689;BME280;42565;53.342;-1.534;2022-08-01T02:23:40;99323.40;;;18.20;43.36
56689;BME280;42565;53.342;-1.534;2022-08-01T02:26:10;99321.18;;;18.03;43.32
56689;BME280;42565;53.342;-1.534;2022-08-01T02:28:45;99321.01;;;17.91;43.79
56689;BME280;42565;53.342;-1.534;2022-08-01T02:31:17;99316.41;;;17.42;44.50
56689;BME280;42565;53.342;-1.534;2022-08-01T02:33:53;99314.68;;;17.58;44.41
56689;BME280;42565;53.342;-1.534;2022-08-01T02:36:26;99310.74;;;17.54;44.51
56689;BME280;42565;53.342;-1.534;2022-08-01T02:38:55;99305.63;;;17.57;45.01
56689;BME280;42565;53.342;-1.534;2022-08-01T02:41:26;99307.15;;;16.94;45.76
56689;BME280;42565;53.342;-1.534;2022-08-01T02:44:00;99304.09;;;17.41;44.89
56689;BME280;42565;53.342;-1.534;2022-08-01T02:46:34;99302.95;;;17.66;45.19
56689;BME280;42565;53.342;-1.534;2022-08-01T02:49:04;99302.43;;;17.92;44.78
56689;BME280;42565;53.342;-1.534;2022-08-01T02:51:35;99301.21;;;17.81;44.48
56689;BME280;42565;53.342;-1.534;2022-08-01T02:54:05;99301.17;;;18.06;44.36
56689;BME280;42565;53.342;-1.534;2022-08-01T02:56:34;99304.98;;;17.86;44.89
56689;BME280;42565;53.342;-1.534;2022-08-01T02:59:05;99306.72;;;17.46;45.93
56689;BME280;42565;53.342;-1.534;2022-08-01T03:01:34;99310.81;;;17.19;45.86
56689;BME280;42565;53.342;-1.534;2022-08-01T03:04:04;99315.76;;;17.27;45.55
56689;BME280;42565;53.342;-1.534;2022-08-01T03:06:32;99318.79;;;16.87;46.13
56689;BME280;42565;53.342;-1.534;2022-08-01T03:09:01;99318.05;;;17.55;45.71
56689;BME280;42565;53.342;-1.534;2022-08-01T03:11:31;99317.09;;;17.24;45.97
56689;BME280;42565;53.342;-1.534;2022-08-01T03:14:01;99317.78;;;17.55;45.87
56689;BME280;42565;53.342;-1.534;2022-08-01T03:16:30;99312.05;;;16.94;46.85
56689;BME280;42565;53.342;-1.534;2022-08-01T03:19:00;99309.30;;;16.73;47.36
56689;BME280;42565;53.342;-1.534;2022-08-01T03:21:29;99306.25;;;16.57;48.01
56689;BME280;42565;53.342;-1.534;2022-08-01T03:23:59;99307.51;;;16.76;47.78
56689;BME280;42565;53.342;-1.534;2022-08-01T03:26:30;99309.57;;;16.61;47.08
56689;BME280;42565;53.342;-1.534;2022-08-01T03:29:01;99309.89;;;17.17;46.79
56689;BME280;42565;53.342;-1.534;2022-08-01T03:31:29;99303.48;;;17.02;46.94
56689;BME280;42565;53.342;-1.534;2022-08-01T03:33:57;99304.18;;;16.78;47.27
56689;BME280;42565;53.342;-1.534;2022-08-01T03:36:26;99301.54;;;16.66;47.11
56689;BME280;42565;53.342;-1.534;2022-08-01T03:38:57;99298.35;;;16.95;47.33
56689;BME280;42565;53.342;-1.534;2022-08-01T03:41:28;99299.86;;;17.01;47.22
56689;BME280;42565;53.342;-1.534;2022-08-01T03:44:02;99301.04;;;17.27;46.68
56689;BME280;42565;53.342;-1.534;2022-08-01T03:46:38;99299.05;;;17.13;46.50
56689;BME280;42565;53.342;-1.534;2022-08-01T03:49:13;99297.85;;;16.93;47.05
56689;BME280;42565;53.342;-1.534;2022-08-01T03:51:41;99300.35;;;16.94;47.44
56689;BME280;42565;53.342;-1.534;2022-08-01T03:54:10;99298.48;;;16.85;46.65
56689;BME280;42565;53.342;-1.534;2022-08-01T03:56:39;99295.82;;;16.89;46.64
56689;BME280;42565;53.342;-1.534;2022-08-01T03:59:09;99293.52;;;17.40;46.60
56689;BME280;42565;53.342;-1.534;2022-08-01T04:01:37;99293.65;;;16.75;47.30
56689;BME280;42565;53.342;-1.534;2022-08-01T04:04:04;99295.09;;;17.16;47.56
56689;BME280;42565;53.342;-1.534;2022-08-01T04:06:32;99296.57;;;16.65;47.82
56689;BME280;42565;53.342;-1.534;2022-08-01T04:08:59;99299.51;;;17.21;47.08
56689;BME280;42565;53.342;-1.534;2022-08-01T04:11:27;99297.54;;;16.92;47.71
56689;BME280;42565;53.342;-1.534;2022-08-01T04:13:56;99294.38;;;16.88;47.74
56689;BME280;42565;53.342;-1.534;2022-08-01T04:16:23;99292.15;;;16.98;47.49
56689;BME280;42565;53.342;-1.534;2022-08-01T04:18:51;99293.20;;;16.92;47.49
56689;BME280;42565;53.342;-1.534;2022-08-01T04:21:22;99290.51;;;16.38;48.15
56689;BME280;42565;53.342;-1.534;2022-08-01T04:23:49;99286.69;;;16.61;48.14
56689;BME280;42565;53.342;-1.534;2022-08-01T04:26:18;99288.30;;;16.54;48.22
56689;BME280;42565;53.342;-1.534;2022-08-01T04:28:46;99285.54;;;16.74;47.73
56689;BME280;42565;53.342;-1.534;2022-08-01T04:31:16;99288.70;;;16.56;47.96
56689;BME280;42565;53.342;-1.534;2022-08-01T04:33:48;99292.35;;;16.29;48.10
56689;BME280;42565;53.342;-1.534;2022-08-01T04:36:20;99291.51;;;16.54;48.39
56689;BME280;42565;53.342;-1.534;2022-08-01T04:38:52;99291.72;;;16.61;48.22
56689;BME280;42565;53.342;-1.534;2022-08-01T04:41:22;99294.67;;;16.29;48.51
56689;BME280;42565;53.342;-1.534;2022-08-01T04:43:50;99298.16;;;16.59;48.46
56689;BME280;42565;53.342;-1.534;2022-08-01T04:46:18;99295.05;;;16.64;48.04
56689;BME280;42565;53.342;-1.534;2022-08-01T04:48:46;99301.04;;;16.49;48.16
56689;BME280;42565;53.342;-1.534;2022-08-01T04:51:16;99300.95;;;16.55;48.02
56689;BME280;42565;53.342;-1.534;2022-08-01T04:53:44;99305.66;;;16.51;48.94
56689;BME280;42565;53.342;-1.534;2022-08-01T04:56:12;99307.82;;;15.62;49.27
56689;BME280;42565;53.342;-1.534;2022-08-01T04:58:39;99305.63;;;16.05;49.00
56689;BME280;42565;53.342;-1.534;2022-08-01T05:01:06;99309.42;;;16.45;48.76
56689;BME280;42565;53.342;-1.534;2022-08-01T05:03:34;99310.96;;;16.38;48.78
56689;BME280;42565;53.342;-1.534;2022-08-01T05:06:02;99307.49;;;16.87;47.97
56689;BME280;42565;53.342;-1.534;2022-08-01T05:08:29;99307.71;;;17.56;46.94
56689;BME280;42565;53.342;-1.534;2022-08-01T05:10:56;99305.43;;;17.66;45.83
56689;BME280;42565;53.342;-1.534;2022-08-01T05:13:23;99306.71;;;17.91;45.36
56689;BME280;42565;53.342;-1.534;2022-08-01T05:15:50;99305.18;;;18.04;44.80
56689;BME280;42565;53.342;-1.534;2022-08-01T05:18:17;99304.32;;;17.65;45.25
56689;BME280;42565;53.342;-1.534;2022-08-01T05:20:44;99307.92;;;17.45;45.38
56689;BME280;42565;53.342;-1.534;2022-08-01T05:23:11;99309.35;;;17.43;45.33
56689;BME280;42565;53.342;-1.534;2022-08-01T05:25:37;99309.97;;;17.85;45.14
56689;BME280;42565;53.342;-1.534;2022-08-01T05:28:04;99309.21;;;17.66;45.45
56689;BME280;42565;53.342;-1.534;2022-08-01T05:30:32;99310.19;;;17.55;45.08
56689;BME280;42565;53.342;-1.534;2022-08-01T05:32:59;99306.78;;;18.18;44.60
56689;BME280;42565;53.342;-1.534;2022-08-01T05:35:26;99305.23;;;18.15;44.36
56689;BME280;42565;53.342;-1.534;2022-08-01T05:37:54;99306.68;;;18.12;43.85
56689;BME280;42565;53.342;-1.534;2022-08-01T05:40:20;99306.37;;;17.94;44.20
56689;BME280;42565;53.342;-1.534;2022-08-01T05:42:47;99304.34;;;17.81;44.33
56689;BME280;42565;53.342;-1.534;2022-08-01T05:45:14;99306.53;;;17.22;45.50
56689;BME280;42565;53.342;-1.534;2022-08-01T05:47:40;99301.70;;;17.57;45.34
56689;BME280;42565;53.342;-1.534;2022-08-01T05:50:08;99304.34;;;17.51;45.85
56689;BME280;42565;53.342;-1.534;2022-08-01T05:52:35;99307.20;;;17.73;45.48
56689;BME280;42565;53.342;-1.534;2022-08-01T05:55:03;99310.25;;;17.57;45.40
56689;BME280;42565;53.342;-1.534;2022-08-01T05:57:30;99308.99;;;17.54;45.78
56689;BME280;42565;53.342;-1.534;2022-08-01T05:59:56;99308.46;;;17.51;45.75
56689;BME280;42565;53.342;-1.534;2022-08-01T06:02:23;99315.38;;;17.79;44.75
56689;BME280;42565;53.342;-1.534;2022-08-01T06:04:50;99319.98;;;17.77;45.36
56689;BME280;42565;53.342;-1.534;2022-08-01T06:07:17;99325.32;;;17.30;46.12
56689;BME280;42565;53.342;-1.534;2022-08-01T06:09:44;99332.41;;;17.09;47.14
56689;BME280;42565;53.342;-1.534;2022-08-01T06:12:11;99336.71;;;17.30;46.57
56689;BME280;42565;53.342;-1.534;2022-08-01T06:14:37;99339.85;;;17.93;45.69
56689;BME280;42565;53.342;-1.534;2022-08-01T06:17:04;99334.27;;;17.15;46.99
56689;BME280;42565;53.342;-1.534;2022-08-01T06:19:31;99334.36;;;17.26;46.65
56689;BME280;42565;53.342;-1.534;2022-08-01T06:21:57;99332.39;;;17.60;45.61
56689;BME280;42565;53.342;-1.534;2022-08-01T06:24:25;99329.41;;;17.17;45.99
56689;BME280;42565;53.342;-1.534;2022-08-01T06:26:52;99331.15;;;17.27;46.79
56689;BME280;42565;53.342;-1.534;2022-08-01T06:29:19;99336.98;;;17.18;45.92
56689;BME280;42565;53.342;-1.534;2022-08-01T06:31:46;99346.10;;;17.33;46.40
56689;BME280;42565;53.342;-1.534;2022-08-01T06:34:12;99343.66;;;17.79;46.03
56689;BME280;42565;53.342;-1.534;2022-08-01T06:36:39;99342.25;;;17.24;47.07
56689;BME280;42565;53.342;-1.534;2022-08-01T06:39:07;99341.58;;;17.48;46.29
56689;BME280;42565;53.342;-1.534;2022-08-01T06:41:34;99341.08;;;17.44;46.11
56689;BME280;42565;53.342;-1.534;2022-08-01T06:44:01;99336.30;;;17.90;46.23
56689;BME280;42565;53.342;-1.534;2022-08-01T06:46:28;99341.29;;;17.58;45.66
56689;BME280;42565;53.342;-1.534;2022-08-01T06:48:55;99345.47;;;17.40;46.62
56689;BME280;42565;53.342;-1.534;2022-08-01T06:51:22;99346.42;;;17.73;46.37
56689;BME280;42565;53.342;-1.534;2022-08-01T06:53:50;99346.42;;;17.52;46.32
56689;BME280;42565;53.342;-1.534;2022-08-01T06:56:17;99342.72;;;17.52;45.84
56689;BME280;42565;53.342;-1.534;2022-08-01T06:58:44;99346.53;;;17.65;44.29
56689;BME280;42565;53.342;-1.534;2022-08-01T07:01:11;99342.49;;;17.97;43.69
56689;BME280;42565;53.342;-1.534;2022-08-01T07:03:38;99341.63;;;18.32;43.93
56689;BME280;42565;53.342;-1.534;2022-08-01T07:06:05;99346.15;;;18.29;43.92
56689;BME280;42565;53.342;-1.534;2022-08-01T07:08:32;99342.97;;;18.17;44.01
56689;BME280;42565;53.342;-1.534;2022-08-01T07:11:00;99341.79;;;18.20;43.66
56689;BME280;42565;53.342;-1.534;2022-08-01T07:13:28;99342.66;;;18.09;43.60
56689;BME280;42565;53.342;-1.534;2022-08-01T07:15:55;99338.92;;;18.53;42.90
56689;BME280;42565;53.342;-1.534;2022-08-01T07:18:21;99339.86;;;18.90;42.60
56689;BME280;42565;53.342;-1.534;2022-08-01T07:20:49;99337.84;;;18.73;43.11
56689;BME280;42565;53.342;-1.534;2022-08-01T07:23:16;99339.54;;;18.49;43.56
56689;BME280;42565;53.342;-1.534;2022-08-01T07:25:44;99339.57;;;18.89;42.72
56689;BME280;42565;53.342;-1.534;2022-08-01T07:28:11;99344.68;;;18.71;42.51
56689;BME280;42565;53.342;-1.534;2022-08-01T07:30:38;99343.75;;;18.58;41.85
56689;BME280;42565;53.342;-1.534;2022-08-01T07:33:05;99346.05;;;18.76;41.60
56689;BME280;42565;53.342;-1.534;2022-08-01T07:35:31;99349.16;;;18.26;39.39
56689;BME280;42565;53.342;-1.534;2022-08-01T07:37:59;99350.33;;;18.80;39.28
56689;BME280;42565;53.342;-1.534;2022-08-01T07:40:26;99353.84;;;19.23;38.80
56689;BME280;42565;53.342;-1.534;2022-08-01T07:42:54;99349.99;;;19.79;38.16
56689;BME280;42565;53.342;-1.534;2022-08-01T07:45:21;99352.37;;;20.09;36.90
56689;BME280;42565;53.342;-1.534;2022-08-01T07:47:48;99353.15;;;20.10;36.88
56689;BME280;42565;53.342;-1.534;2022-08-01T07:50:16;99357.29;;;20.65;36.14
56689;BME280;42565;53.342;-1.534;2022-08-01T07:52:43;99348.35;;;20.01;35.62
56689;BME280;42565;53.342;-1.534;2022-08-01T07:55:12;99345.80;;;20.26;35.21
56689;BME280;42565;53.342;-1.534;2022-08-01T07:57:39;99340.77;;;20.70;35.12
56689;BME280;42565;53.342;-1.534;2022-08-01T08:00:08;99337.66;;;20.64;36.93
56689;BME280;42565;53.342;-1.534;2022-08-01T08:02:35;99336.56;;;21.07;36.57
56689;BME280;42565;53.342;-1.534;2022-08-01T08:05:03;99333.60;;;21.77;35.69
56689;BME280;42565;53.342;-1.534;2022-08-01T08:07:30;99335.09;;;21.90;35.98
56689;BME280;42565;53.342;-1.534;2022-08-01T08:09:57;99338.17;;;22.40;35.63
56689;BME280;42565;53.342;-1.534;2022-08-01T08:12:25;99333.46;;;22.51;35.07
56689;BME280;42565;53.342;-1.534;2022-08-01T08:14:52;99331.63;;;22.70;34.90
56689;BME280;42565;53.342;-1.534;2022-08-01T08:17:19;99335.66;;;22.48;36.08
56689;BME280;42565;53.342;-1.534;2022-08-01T08:19:47;99333.91;;;22.71;34.94
56689;BME280;42565;53.342;-1.534;2022-08-01T08:22:14;99330.69;;;22.41;35.57
56689;BME280;42565;53.342;-1.534;2022-08-01T08:24:41;99332.51;;;22.89;34.96
56689;BME280;42565;53.342;-1.534;2022-08-01T08:27:09;99328.23;;;22.78;33.68
56689;BME280;42565;53.342;-1.534;2022-08-01T08:29:36;99328.30;;;22.83;33.05
56689;BME280;42565;53.342;-1.534;2022-08-01T08:32:04;99328.22;;;22.93;34.02
56689;BME280;42565;53.342;-1.534;2022-08-01T08:34:31;99328.53;;;23.15;33.37
56689;BME280;42565;53.342;-1.534;2022-08-01T08:36:59;99321.74;;;23.08;34.08
56689;BME280;42565;53.342;-1.534;2022-08-01T08:39:26;99322.02;;;23.02;33.89
56689;BME280;42565;53.342;-1.534;2022-08-01T08:41:54;99326.04;;;23.23;33.26
56689;BME280;42565;53.342;-1.534;2022-08-01T08:44:23;99328.09;;;23.13;32.71
56689;BME280;42565;53.342;-1.534;2022-08-01T08:46:51;99326.07;;;23.38;32.30
56689;BME280;42565;53.342;-1.534;2022-08-01T08:49:21;99319.45;;;21.93;34.77
56689;BME280;42565;53.342;-1.534;2022-08-01T08:51:50;99327.33;;;21.58;34.36
56689;BME280;42565;53.342;-1.534;2022-08-01T08:54:19;99323.28;;;22.18;34.41
56689;BME280;42565;53.342;-1.534;2022-08-01T08:56:48;99320.78;;;21.60;34.57
56689;BME280;42565;53.342;-1.534;2022-08-01T08:59:15;99322.58;;;21.98;34.76
56689;BME280;42565;53.342;-1.534;2022-08-01T09:01:43;99328.57;;;22.24;33.76
56689;BME280;42565;53.342;-1.534;2022-08-01T09:04:11;99324.57;;;22.05;33.19
56689;BME280;42565;53.342;-1.534;2022-08-01T09:06:38;99328.62;;;21.62;34.74
56689;BME280;42565;53.342;-1.534;2022-08-01T09:09:07;99325.92;;;20.91;35.09
56689;BME280;42565;53.342;-1.534;2022-08-01T09:11:35;99330.36;;;21.28;35.55
56689;BME280;42565;53.342;-1.534;2022-08-01T09:14:05;99329.44;;;21.96;34.08
56689;BME280;42565;53.342;-1.534;2022-08-01T09:16:34;99327.32;;;21.58;34.08
56689;BME280;42565;53.342;-1.534;2022-08-01T09:19:11;99325.03;;;22.10;32.47
56689;BME280;42565;53.342;-1.534;2022-08-01T09:21:40;99318.90;;;22.21;33.24
56689;BME280;42565;53.342;-1.534;2022-08-01T09:24:22;99319.92;;;22.92;31.96
56689;BME280;42565;53.342;-1.534;2022-08-01T09:26:49;99322.50;;;23.59;32.37
56689;BME280;42565;53.342;-1.534;2022-08-01T09:29:19;99315.36;;;23.78;31.08
56689;BME280;42565;53.342;-1.534;2022-08-01T09:31:46;99320.50;;;23.35;30.80
56689;BME280;42565;53.342;-1.534;2022-08-01T09:34:14;99322.67;;;22.90;30.74
56689;BME280;42565;53.342;-1.534;2022-08-01T09:36:48;99321.92;;;23.85;31.20
56689;BME280;42565;53.342;-1.534;2022-08-01T09:39:15;99323.03;;;23.89;30.65
56689;BME280;42565;53.342;-1.534;2022-08-01T09:41:43;99325.39;;;23.71;29.72
56689;BME280;42565;53.342;-1.534;2022-08-01T09:44:11;99321.91;;;23.82;30.58
56689;BME280;42565;53.342;-1.534;2022-08-01T09:46:50;99318.70;;;24.08;29.69
56689;BME280;42565;53.342;-1.534;2022-08-01T09:49:29;99321.18;;;22.94;30.56
56689;BME280;42565;53.342;-1.534;2022-08-01T09:51:57;99319.94;;;23.59;31.63
56689;BME280;42565;53.342;-1.534;2022-08-01T09:54:30;99319.26;;;23.16;31.88
56689;BME280;42565;53.342;-1.534;2022-08-01T09:57:09;99315.69;;;21.38;34.27
56689;BME280;42565;53.342;-1.534;2022-08-01T09:59:37;99314.55;;;22.19;34.10
56689;BME280;42565;53.342;-1.534;2022-08-01T10:02:05;99311.53;;;22.78;32.46
56689;BME280;42565;53.342;-1.534;2022-08-01T10:04:33;99313.88;;;23.22;31.25
56689;BME280;42565;53.342;-1.534;2022-08-01T10:07:05;99317.76;;;23.05;31.20
56689;BME280;42565;53.342;-1.534;2022-08-01T10:09:33;99320.03;;;23.19;31.53
56689;BME280;42565;53.342;-1.534;2022-08-01T10:12:02;99322.62;;;22.92;31.62
56689;BME280;42565;53.342;-1.534;2022-08-01T10:14:31;99325.19;;;23.67;32.57
56689;BME280;42565;53.342;-1.534;2022-08-01T10:16:59;99331.81;;;23.61;30.32
56689;BME280;42565;53.342;-1.534;2022-08-01T10:19:29;99332.29;;;24.76;30.67
56689;BME280;42565;53.342;-1.534;2022-08-01T10:21:57;99331.96;;;25.52;28.83
56689;BME280;42565;53.342;-1.534;2022-08-01T10:24:25;99335.58;;;24.94;28.20
56689;BME280;42565;53.342;-1.534;2022-08-01T10:26:56;99331.54;;;25.24;29.10
56689;BME280;42565;53.342;-1.534;2022-08-01T10:29:25;99337.11;;;24.80;28.72
56689;BME280;42565;53.342;-1.534;2022-08-01T10:31:52;99331.63;;;23.53;30.49
56689;BME280;42565;53.342;-1.534;2022-08-01T10:34:20;99333.15;;;23.26;31.48
56689;BME280;42565;53.342;-1.534;2022-08-01T10:36:48;99324.04;;;23.91;30.50
56689;BME280;42565;53.342;-1.534;2022-08-01T10:39:16;99330.72;;;23.65;30.51
56689;BME280;42565;53.342;-1.534;2022-08-01T10:41:44;99334.39;;;23.99;30.40
56689;BME280;42565;53.342;-1.534;2022-08-01T10:44:12;99335.15;;;24.13;30.65
56689;BME280;42565;53.342;-1.534;2022-08-01T10:46:44;99329.69;;;24.62;29.79
56689;BME280;42565;53.342;-1.534;2022-08-01T10:49:15;99327.92;;;24.92;30.32
56689;BME280;42565;53.342;-1.534;2022-08-01T10:51:44;99328.68;;;24.55;29.86
56689;BME280;42565;53.342;-1.534;2022-08-01T10:54:12;99320.93;;;23.16;32.25
56689;BME280;42565;53.342;-1.534;2022-08-01T10:56:43;99320.89;;;22.24;32.99
56689;BME280;42565;53.342;-1.534;2022-08-01T10:59:15;99315.67;;;22.12;33.19
56689;BME280;42565;53.342;-1.534;2022-08-01T11:01:42;99318.51;;;23.17;32.63
56689;BME280;42565;53.342;-1.534;2022-08-01T11:04:15;99315.55;;;23.59;31.39
56689;BME280;42565;53.342;-1.534;2022-08-01T11:06:53;99316.59;;;24.58;30.58
56689;BME280;42565;53.342;-1.534;2022-08-01T11:09:29;99313.08;;;24.72;30.36
56689;BME280;42565;53.342;-1.534;2022-08-01T11:11:59;99310.27;;;25.04;30.27
56689;BME280;42565;53.342;-1.534;2022-08-01T11:14:27;99307.72;;;24.88;30.40
56689;BME280;42565;53.342;-1.534;2022-08-01T11:16:54;99306.27;;;24.77;29.97
56689;BME280;42565;53.342;-1.534;2022-08-01T11:19:22;99298.74;;;23.50;30.46
56689;BME280;42565;53.342;-1.534;2022-08-01T11:22:05;99295.26;;;24.15;30.98
56689;BME280;42565;53.342;-1.534;2022-08-01T11:25:05;99290.05;;;23.45;31.61
56689;BME280;42565;53.342;-1.534;2022-08-01T11:27:33;99290.22;;;23.65;32.58
56689;BME280;42565;53.342;-1.534;2022-08-01T11:30:32;99288.16;;;23.75;32.19
56689;BME280;42565;53.342;-1.534;2022-08-01T11:32:59;99287.97;;;23.10;33.06
56689;BME280;42565;53.342;-1.534;2022-08-01T11:35:28;99283.44;;;23.13;31.49
56689;BME280;42565;53.342;-1.534;2022-08-01T11:37:55;99277.17;;;23.57;33.24
56689;BME280;42565;53.342;-1.534;2022-08-01T11:40:23;99275.98;;;24.08;31.82
56689;BME280;42565;53.342;-1.534;2022-08-01T11:45:50;99272.07;;;25.17;29.55
56689;BME280;42565;53.342;-1.534;2022-08-01T11:48:18;99270.26;;;24.62;28.82
56689;BME280;42565;53.342;-1.534;2022-08-01T11:50:46;99267.92;;;24.35;29.96
56689;BME280;42565;53.342;-1.534;2022-08-01T11:53:13;99266.38;;;23.61;32.13
56689;BME280;42565;53.342;-1.534;2022-08-01T11:55:46;99258.21;;;24.14;30.61
56689;BME280;42565;53.342;-1.534;2022-08-01T11:58:15;99261.79;;;24.59;30.51
56689;BME280;42565;53.342;-1.534;2022-08-01T12:00:50;99259.66;;;25.54;29.60
56689;BME280;42565;53.342;-1.534;2022-08-01T12:03:23;99256.31;;;25.64;29.38
56689;BME280;42565;53.342;-1.534;2022-08-01T12:05:52;99256.18;;;25.89;29.17
56689;BME280;42565;53.342;-1.534;2022-08-01T12:08:24;99263.38;;;25.20;29.40
56689;BME280;42565;53.342;-1.534;2022-08-01T12:10:52;99261.98;;;24.99;29.10
56689;BME280;42565;53.342;-1.534;2022-08-01T12:13:20;99259.56;;;24.46;28.52
56689;BME280;42565;53.342;-1.534;2022-08-01T12:15:48;99262.28;;;24.63;30.18
56689;BME280;42565;53.342;-1.534;2022-08-01T12:18:15;99258.01;;;23.96;30.64
56689;BME280;42565;53.342;-1.534;2022-08-01T12:20:45;99253.85;;;24.16;30.77
56689;BME280;42565;53.342;-1.534;2022-08-01T12:23:14;99259.01;;;24.12;31.25
56689;BME280;42565;53.342;-1.534;2022-08-01T12:25:42;99259.42;;;24.55;30.60
56689;BME280;42565;53.342;-1.534;2022-08-01T12:28:11;99252.05;;;25.11;30.23
56689;BME280;42565;53.342;-1.534;2022-08-01T12:30:38;99243.96;;;26.29;28.12
56689;BME280;42565;53.342;-1.534;2022-08-01T12:33:07;99244.97;;;25.87;27.31
56689;BME280;42565;53.342;-1.534;2022-08-01T12:35:35;99255.95;;;24.21;29.60
56689;BME280;42565;53.342;-1.534;2022-08-01T12:38:05;99246.82;;;23.55;31.65
56689;BME280;42565;53.342;-1.534;2022-08-01T12:40:34;99241.67;;;22.13;33.08
56689;BME280;42565;53.342;-1.534;2022-08-01T12:43:04;99247.77;;;22.56;33.56
56689;BME280;42565;53.342;-1.534;2022-08-01T12:45:34;99242.93;;;22.48;33.68
56689;BME280;42565;53.342;-1.534;2022-08-01T12:48:08;99235.97;;;22.34;33.43
56689;BME280;42565;53.342;-1.534;2022-08-01T12:50:38;99229.15;;;22.02;34.81
56689;BME280;42565;53.342;-1.534;2022-08-01T12:53:05;99226.45;;;22.88;32.98
56689;BME280;42565;53.342;-1.534;2022-08-01T12:55:32;99229.07;;;22.68;32.11
56689;BME280;42565;53.342;-1.534;2022-08-01T12:58:08;99223.61;;;23.21;32.39
56689;BME280;42565;53.342;-1.534;2022-08-01T13:00:36;99223.21;;;23.83;32.82
56689;BME280;42565;53.342;-1.534;2022-08-01T13:03:05;99221.72;;;24.41;31.22